sensor_id;sensor_type;location;lat;lon;timestamp;P1;durP1;ratioP1;P2;durP2;ratioP2
66087;SDS011;52872;52.994;6.940;2023-05-07T00:01:49;32.85;;;24.27;;
66087;SDS011;52872;52.994;6.940;2023-05-07T00:04:16;35.08;;;25.33;;
66087;SDS011;52872;52.994;6.940;2023-05-07T00:06:43;34.78;;;26.40;;
66087;SDS011;52872;52.994;6.940;2023-05-07T00:09:10;29.33;;;24.17;;
66087;SDS011;52872;52.994;6.940;2023-05-07T00:11:37;33.97;;;24.15;;
66087;SDS011;52872;52.994;6.940;2023-05-07T00:14:04;28.23;;;21.77;;
66087;SDS011;52872;52.994;6.940;2023-05-07T00:16:31;30.73;;;23.38;;
66087;SDS011;52872;52.994;6.940;2023-05-07T00:18:58;32.78;;;24.25;;
66087;SDS011;52872;52.994;6.940;2023-05-07T00:21:25;29.15;;;22.83;;
66087;SDS011;52872;52.994;6.940;2023-05-07T00:23:54;29.13;;;23.55;;
66087;SDS011;52872;52.994;6.940;2023-05-07T00:26:21;32.97;;;24.52;;
66087;SDS011;52872;52.994;6.940;2023-05-07T00:28:50;29.92;;;25.13;;
66087;SDS011;52872;52.994;6.940;2023-05-07T00:31:17;30.33;;;25.80;;
66087;SDS011;52872;52.994;6.940;2023-05-07T00:33:44;29.42;;;23.52;;
66087;SDS011;52872;52.994;6.940;2023-05-07T00:36:11;30.35;;;25.17;;
66087;SDS011;52872;52.994;6.940;2023-05-07T00:38:38;31.50;;;25.77;;
66087;SDS011;52872;52.994;6.940;2023-05-07T00:41:05;33.47;;;25.63;;
66087;SDS011;52872;52.994;6.940;2023-05-07T00:43:32;34.05;;;26.33;;
66087;SDS011;52872;52.994;6.940;2023-05-07T00:45:59;32.70;;;24.90;;
66087;SDS011;52872;52.994;6.940;2023-05-07T00:48:27;34.50;;;24.48;;
66087;SDS011;52872;52.994;6.940;2023-05-07T00:50:54;34.47;;;25.63;;
66087;SDS011;52872;52.994;6.940;2023-05-07T00:53:21;32.70;;;25.88;;
66087;SDS011;52872;52.994;6.940;2023-05-07T00:55:48;32.17;;;25.55;;
66087;SDS011;52872;52.994;6.940;2023-05-07T00:58:16;36.40;;;27.17;;
66087;SDS011;52872;52.994;6.940;2023-05-07T01:00:43;34.45;;;26.15;;
66087;SDS011;52872;52.994;6.940;2023-05-07T01:03:10;33.28;;;26.83;;
66087;SDS011;52872;52.994;6.940;2023-05-07T01:05:37;33.95;;;25.42;;
66087;SDS011;52872;52.994;6.940;2023-05-07T01:08:04;34.17;;;25.90;;
66087;SDS011;52872;52.994;6.940;2023-05-07T01:10:31;33.60;;;26.13;;
66087;SDS011;52872;52.994;6.940;2023-05-07T01:12:59;34.67;;;27.13;;
66087;SDS011;52872;52.994;6.940;2023-05-07T01:15:26;39.00;;;27.50;;
66087;SDS011;52872;52.994;6.940;2023-05-07T01:17:54;37.05;;;27.70;;
66087;SDS011;52872;52.994;6.940;2023-05-07T01:20:29;37.33;;;27.80;;
66087;SDS011;52872;52.994;6.940;2023-05-07T01:22:57;40.20;;;28.25;;
66087;SDS011;52872;52.994;6.940;2023-05-07T01:25:26;39.08;;;28.02;;
66087;SDS011;52872;52.994;6.940;2023-05-07T01:27:57;38.15;;;27.95;;
66087;SDS011;52872;52.994;6.940;2023-05-07T01:30:28;41.08;;;29.10;;
66087;SDS011;52872;52.994;6.940;2023-05-07T01:33:01;39.22;;;28.92;;
66087;SDS011;52872;52.994;6.940;2023-05-07T01:35:32;39.63;;;28.05;;
66087;SDS011;52872;52.994;6.940;2023-05-07T01:38:03;39.65;;;29.70;;
66087;SDS011;52872;52.994;6.940;2023-05-07T01:40:32;42.60;;;30.55;;
66087;SDS011;52872;52.994;6.940;2023-05-07T01:43:01;45.00;;;31.35;;
66087;SDS011;52872;52.994;6.940;2023-05-07T01:45:30;41.80;;;29.83;;
66087;SDS011;52872;52.994;6.940;2023-05-07T01:47:58;42.00;;;30.30;;
66087;SDS011;52872;52.994;6.940;2023-05-07T01:50:26;41.35;;;31.73;;
66087;SDS011;52872;52.994;6.940;2023-05-07T01:52:53;42.50;;;31.83;;
66087;SDS011;52872;52.994;6.940;2023-05-07T01:55:20;48.13;;;32.30;;
66087;SDS011;52872;52.994;6.940;2023-05-07T01:57:48;48.10;;;32.63;;
66087;SDS011;52872;52.994;6.940;2023-05-07T02:00:15;48.17;;;31.75;;
66087;SDS011;52872;52.994;6.940;2023-05-07T02:02:43;47.95;;;32.25;;
66087;SDS011;52872;52.994;6.940;2023-05-07T02:05:22;49.53;;;33.78;;
66087;SDS011;52872;52.994;6.940;2023-05-07T02:07:57;50.63;;;33.28;;
66087;SDS011;52872;52.994;6.940;2023-05-07T02:10:26;55.30;;;32.47;;
66087;SDS011;52872;52.994;6.940;2023-05-07T02:12:53;53.42;;;33.95;;
66087;SDS011;52872;52.994;6.940;2023-05-07T02:15:20;51.15;;;33.53;;
66087;SDS011;52872;52.994;6.940;2023-05-07T02:20:45;60.00;;;35.55;;
66087;SDS011;52872;52.994;6.940;2023-05-07T02:23:12;54.53;;;34.28;;
66087;SDS011;52872;52.994;6.940;2023-05-07T02:25:39;57.75;;;34.83;;
66087;SDS011;52872;52.994;6.940;2023-05-07T02:28:06;58.03;;;35.63;;
66087;SDS011;52872;52.994;6.940;2023-05-07T02:30:42;53.38;;;34.92;;
66087;SDS011;52872;52.994;6.940;2023-05-07T02:33:09;61.50;;;37.20;;
66087;SDS011;52872;52.994;6.940;2023-05-07T02:35:39;57.40;;;36.00;;
66087;SDS011;52872;52.994;6.940;2023-05-07T02:38:07;59.08;;;36.17;;
66087;SDS011;52872;52.994;6.940;2023-05-07T02:40:34;59.45;;;35.60;;
66087;SDS011;52872;52.994;6.940;2023-05-07T02:43:05;60.90;;;36.67;;
66087;SDS011;52872;52.994;6.940;2023-05-07T02:45:32;57.20;;;37.05;;
66087;SDS011;52872;52.994;6.940;2023-05-07T02:48:01;64.22;;;36.35;;
66087;SDS011;52872;52.994;6.940;2023-05-07T02:50:28;63.00;;;40.05;;
66087;SDS011;52872;52.994;6.940;2023-05-07T02:52:55;62.53;;;36.78;;
66087;SDS011;52872;52.994;6.940;2023-05-07T02:55:22;54.55;;;34.45;;
66087;SDS011;52872;52.994;6.940;2023-05-07T02:57:49;59.47;;;39.50;;
66087;SDS011;52872;52.994;6.940;2023-05-07T03:00:17;62.67;;;40.25;;
66087;SDS011;52872;52.994;6.940;2023-05-07T03:02:53;56.20;;;36.22;;
66087;SDS011;52872;52.994;6.940;2023-05-07T03:05:20;61.88;;;36.10;;
66087;SDS011;52872;52.994;6.940;2023-05-07T03:07:47;52.67;;;35.47;;
66087;SDS011;52872;52.994;6.940;2023-05-07T03:10:14;52.80;;;34.88;;
66087;SDS011;52872;52.994;6.940;2023-05-07T03:12:42;60.28;;;36.03;;
66087;SDS011;52872;52.994;6.940;2023-05-07T03:15:13;54.53;;;35.25;;
66087;SDS011;52872;52.994;6.940;2023-05-07T03:17:40;52.50;;;33.28;;
66087;SDS011;52872;52.994;6.940;2023-05-07T03:20:07;59.72;;;36.85;;
66087;SDS011;52872;52.994;6.940;2023-05-07T03:22:36;52.38;;;34.30;;
66087;SDS011;52872;52.994;6.940;2023-05-07T03:25:03;54.88;;;34.95;;
66087;SDS011;52872;52.994;6.940;2023-05-07T03:27:31;62.75;;;36.08;;
66087;SDS011;52872;52.994;6.940;2023-05-07T03:29:58;55.88;;;36.22;;
66087;SDS011;52872;52.994;6.940;2023-05-07T03:32:24;55.05;;;35.53;;
66087;SDS011;52872;52.994;6.940;2023-05-07T03:34:52;53.35;;;35.47;;
66087;SDS011;52872;52.994;6.940;2023-05-07T03:37:19;54.20;;;34.65;;
66087;SDS011;52872;52.994;6.940;2023-05-07T03:39:48;55.58;;;37.10;;
66087;SDS011;52872;52.994;6.940;2023-05-07T03:42:15;58.08;;;34.47;;
66087;SDS011;52872;52.994;6.940;2023-05-07T03:44:42;50.33;;;31.48;;
66087;SDS011;52872;52.994;6.940;2023-05-07T03:47:09;54.15;;;34.63;;
66087;SDS011;52872;52.994;6.940;2023-05-07T03:49:37;44.72;;;31.63;;
66087;SDS011;52872;52.994;6.940;2023-05-07T03:52:04;50.78;;;33.22;;
66087;SDS011;52872;52.994;6.940;2023-05-07T03:54:32;49.35;;;32.83;;
66087;SDS011;52872;52.994;6.940;2023-05-07T03:56:59;49.95;;;31.50;;
66087;SDS011;52872;52.994;6.940;2023-05-07T03:59:26;46.58;;;31.83;;
66087;SDS011;52872;52.994;6.940;2023-05-07T04:01:53;49.75;;;31.75;;
66087;SDS011;52872;52.994;6.940;2023-05-07T04:04:22;44.08;;;32.00;;
66087;SDS011;52872;52.994;6.940;2023-05-07T04:06:49;46.05;;;33.13;;
66087;SDS011;52872;52.994;6.940;2023-05-07T04:09:16;42.97;;;31.65;;
66087;SDS011;52872;52.994;6.940;2023-05-07T04:11:45;45.17;;;32.17;;
66087;SDS011;52872;52.994;6.940;2023-05-07T04:14:12;44.53;;;32.03;;
66087;SDS011;52872;52.994;6.940;2023-05-07T04:16:39;43.78;;;30.73;;
66087;SDS011;52872;52.994;6.940;2023-05-07T04:19:07;44.00;;;30.15;;
66087;SDS011;52872;52.994;6.940;2023-05-07T04:21:35;46.42;;;31.80;;
66087;SDS011;52872;52.994;6.940;2023-05-07T04:24:05;45.38;;;30.40;;
66087;SDS011;52872;52.994;6.940;2023-05-07T04:26:32;43.60;;;30.40;;
66087;SDS011;52872;52.994;6.940;2023-05-07T04:29:00;39.97;;;27.88;;
66087;SDS011;52872;52.994;6.940;2023-05-07T04:31:31;36.08;;;26.98;;
66087;SDS011;52872;52.994;6.940;2023-05-07T04:33:58;40.33;;;28.70;;
66087;SDS011;52872;52.994;6.940;2023-05-07T04:36:26;36.45;;;28.38;;
66087;SDS011;52872;52.994;6.940;2023-05-07T04:39:00;35.72;;;27.38;;
66087;SDS011;52872;52.994;6.940;2023-05-07T04:41:29;39.40;;;29.00;;
66087;SDS011;52872;52.994;6.940;2023-05-07T04:43:56;34.92;;;26.30;;
66087;SDS011;52872;52.994;6.940;2023-05-07T04:46:27;40.30;;;28.10;;
66087;SDS011;52872;52.994;6.940;2023-05-07T04:48:56;37.17;;;27.38;;
66087;SDS011;52872;52.994;6.940;2023-05-07T04:51:23;38.97;;;27.65;;
66087;SDS011;52872;52.994;6.940;2023-05-07T04:53:50;35.97;;;27.40;;
66087;SDS011;52872;52.994;6.940;2023-05-07T04:56:17;35.28;;;27.10;;
66087;SDS011;52872;52.994;6.940;2023-05-07T04:58:45;33.35;;;25.77;;
66087;SDS011;52872;52.994;6.940;2023-05-07T05:01:14;32.70;;;26.27;;
66087;SDS011;52872;52.994;6.940;2023-05-07T05:03:41;31.95;;;25.05;;
66087;SDS011;52872;52.994;6.940;2023-05-07T05:06:08;30.48;;;24.20;;
66087;SDS011;52872;52.994;6.940;2023-05-07T05:08:35;32.30;;;25.88;;
66087;SDS011;52872;52.994;6.940;2023-05-07T05:11:03;32.05;;;25.83;;
66087;SDS011;52872;52.994;6.940;2023-05-07T05:13:32;31.85;;;25.27;;
66087;SDS011;52872;52.994;6.940;2023-05-07T05:16:05;30.83;;;25.55;;
66087;SDS011;52872;52.994;6.940;2023-05-07T05:18:32;31.25;;;25.27;;
66087;SDS011;52872;52.994;6.940;2023-05-07T05:20:59;31.15;;;26.35;;
66087;SDS011;52872;52.994;6.940;2023-05-07T05:23:27;32.88;;;25.08;;
66087;SDS011;52872;52.994;6.940;2023-05-07T05:25:55;31.92;;;24.23;;
66087;SDS011;52872;52.994;6.940;2023-05-07T05:28:26;28.77;;;22.88;;
66087;SDS011;52872;52.994;6.940;2023-05-07T05:30:54;31.00;;;22.42;;
66087;SDS011;52872;52.994;6.940;2023-05-07T05:33:23;30.65;;;24.02;;
66087;SDS011;52872;52.994;6.940;2023-05-07T05:35:50;28.40;;;22.98;;
66087;SDS011;52872;52.994;6.940;2023-05-07T05:38:17;29.48;;;22.75;;
66087;SDS011;52872;52.994;6.940;2023-05-07T05:40:45;28.38;;;23.27;;
66087;SDS011;52872;52.994;6.940;2023-05-07T05:43:13;27.38;;;23.20;;
66087;SDS011;52872;52.994;6.940;2023-05-07T05:45:40;27.23;;;23.25;;
66087;SDS011;52872;52.994;6.940;2023-05-07T05:48:07;26.92;;;23.05;;
66087;SDS011;52872;52.994;6.940;2023-05-07T05:50:35;28.38;;;22.17;;
66087;SDS011;52872;52.994;6.940;2023-05-07T05:53:03;30.23;;;22.05;;
66087;SDS011;52872;52.994;6.940;2023-05-07T05:55:30;27.33;;;23.52;;
66087;SDS011;52872;52.994;6.940;2023-05-07T05:58:01;26.65;;;23.45;;
66087;SDS011;52872;52.994;6.940;2023-05-07T06:00:30;28.48;;;23.90;;
66087;SDS011;52872;52.994;6.940;2023-05-07T06:03:02;29.05;;;22.60;;
66087;SDS011;52872;52.994;6.940;2023-05-07T06:05:29;27.95;;;23.52;;
66087;SDS011;52872;52.994;6.940;2023-05-07T06:07:56;28.98;;;23.00;;
66087;SDS011;52872;52.994;6.940;2023-05-07T06:10:25;27.48;;;23.90;;
66087;SDS011;52872;52.994;6.940;2023-05-07T06:12:53;27.02;;;23.10;;
66087;SDS011;52872;52.994;6.940;2023-05-07T06:15:21;27.52;;;22.85;;
66087;SDS011;52872;52.994;6.940;2023-05-07T06:17:49;30.25;;;21.98;;
66087;SDS011;52872;52.994;6.940;2023-05-07T06:20:16;25.75;;;22.70;;
66087;SDS011;52872;52.994;6.940;2023-05-07T06:22:44;29.05;;;23.38;;
66087;SDS011;52872;52.994;6.940;2023-05-07T06:25:12;27.27;;;21.98;;
66087;SDS011;52872;52.994;6.940;2023-05-07T06:27:41;24.98;;;22.10;;
66087;SDS011;52872;52.994;6.940;2023-05-07T06:30:08;25.85;;;22.65;;
66087;SDS011;52872;52.994;6.940;2023-05-07T06:32:36;28.35;;;23.25;;
66087;SDS011;52872;52.994;6.940;2023-05-07T06:35:04;27.90;;;22.50;;
66087;SDS011;52872;52.994;6.940;2023-05-07T06:37:34;27.17;;;23.65;;
66087;SDS011;52872;52.994;6.940;2023-05-07T06:40:04;28.02;;;23.00;;
66087;SDS011;52872;52.994;6.940;2023-05-07T06:42:37;29.83;;;23.38;;
66087;SDS011;52872;52.994;6.940;2023-05-07T06:45:21;29.08;;;22.80;;
66087;SDS011;52872;52.994;6.940;2023-05-07T06:47:48;27.63;;;22.23;;
66087;SDS011;52872;52.994;6.940;2023-05-07T06:50:16;27.50;;;22.52;;
66087;SDS011;52872;52.994;6.940;2023-05-07T06:52:43;27.10;;;23.95;;
66087;SDS011;52872;52.994;6.940;2023-05-07T06:55:11;29.60;;;23.80;;
66087;SDS011;52872;52.994;6.940;2023-05-07T06:57:38;29.60;;;24.38;;
66087;SDS011;52872;52.994;6.940;2023-05-07T07:00:05;25.70;;;22.92;;
66087;SDS011;52872;52.994;6.940;2023-05-07T07:02:44;28.63;;;24.25;;
66087;SDS011;52872;52.994;6.940;2023-05-07T07:05:12;28.27;;;23.58;;
66087;SDS011;52872;52.994;6.940;2023-05-07T07:07:38;30.42;;;23.98;;
66087;SDS011;52872;52.994;6.940;2023-05-07T07:10:06;28.25;;;22.95;;
66087;SDS011;52872;52.994;6.940;2023-05-07T07:12:33;29.45;;;26.33;;
66087;SDS011;52872;52.994;6.940;2023-05-07T07:15:01;30.58;;;24.05;;
66087;SDS011;52872;52.994;6.940;2023-05-07T07:17:28;29.67;;;23.02;;
66087;SDS011;52872;52.994;6.940;2023-05-07T07:19:55;28.88;;;23.98;;
66087;SDS011;52872;52.994;6.940;2023-05-07T07:22:22;29.85;;;25.15;;
66087;SDS011;52872;52.994;6.940;2023-05-07T07:24:49;29.95;;;23.90;;
66087;SDS011;52872;52.994;6.940;2023-05-07T07:27:17;30.98;;;25.45;;
66087;SDS011;52872;52.994;6.940;2023-05-07T07:29:44;27.05;;;20.23;;
66087;SDS011;52872;52.994;6.940;2023-05-07T07:32:11;27.50;;;22.85;;
66087;SDS011;52872;52.994;6.940;2023-05-07T07:34:39;27.05;;;22.48;;
66087;SDS011;52872;52.994;6.940;2023-05-07T07:37:06;27.58;;;22.65;;
66087;SDS011;52872;52.994;6.940;2023-05-07T07:39:35;25.58;;;21.40;;
66087;SDS011;52872;52.994;6.940;2023-05-07T07:42:05;25.23;;;20.52;;
66087;SDS011;52872;52.994;6.940;2023-05-07T07:44:32;27.23;;;22.23;;
66087;SDS011;52872;52.994;6.940;2023-05-07T07:47:05;25.15;;;22.30;;
66087;SDS011;52872;52.994;6.940;2023-05-07T07:49:32;24.77;;;20.67;;
66087;SDS011;52872;52.994;6.940;2023-05-07T07:52:03;25.85;;;22.33;;
66087;SDS011;52872;52.994;6.940;2023-05-07T07:54:32;24.23;;;20.08;;
66087;SDS011;52872;52.994;6.940;2023-05-07T07:56:59;23.85;;;20.33;;
66087;SDS011;52872;52.994;6.940;2023-05-07T07:59:30;24.67;;;21.70;;
66087;SDS011;52872;52.994;6.940;2023-05-07T08:01:57;23.85;;;21.23;;
66087;SDS011;52872;52.994;6.940;2023-05-07T08:04:27;24.77;;;21.25;;
66087;SDS011;52872;52.994;6.940;2023-05-07T08:06:55;21.65;;;19.35;;
66087;SDS011;52872;52.994;6.940;2023-05-07T08:09:23;21.55;;;18.90;;
66087;SDS011;52872;52.994;6.940;2023-05-07T08:11:51;23.77;;;21.15;;
66087;SDS011;52872;52.994;6.940;2023-05-07T08:14:19;21.80;;;18.92;;
66087;SDS011;52872;52.994;6.940;2023-05-07T08:16:47;23.13;;;19.92;;
66087;SDS011;52872;52.994;6.940;2023-05-07T08:19:14;23.58;;;20.38;;
66087;SDS011;52872;52.994;6.940;2023-05-07T08:21:41;23.35;;;20.77;;
66087;SDS011;52872;52.994;6.940;2023-05-07T08:24:10;24.63;;;20.67;;
66087;SDS011;52872;52.994;6.940;2023-05-07T08:26:38;21.05;;;18.80;;
66087;SDS011;52872;52.994;6.940;2023-05-07T08:29:07;24.10;;;20.25;;
66087;SDS011;52872;52.994;6.940;2023-05-07T08:31:34;21.17;;;17.42;;
66087;SDS011;52872;52.994;6.940;2023-05-07T08:34:01;23.25;;;19.13;;
66087;SDS011;52872;52.994;6.940;2023-05-07T08:36:29;19.90;;;17.67;;
66087;SDS011;52872;52.994;6.940;2023-05-07T08:38:56;21.85;;;19.60;;
66087;SDS011;52872;52.994;6.940;2023-05-07T08:41:23;22.02;;;19.70;;
66087;SDS011;52872;52.994;6.940;2023-05-07T08:43:51;21.73;;;19.52;;
66087;SDS011;52872;52.994;6.940;2023-05-07T08:46:19;22.08;;;18.67;;
66087;SDS011;52872;52.994;6.940;2023-05-07T08:48:51;20.45;;;18.33;;
66087;SDS011;52872;52.994;6.940;2023-05-07T08:51:19;20.95;;;18.75;;
66087;SDS011;52872;52.994;6.940;2023-05-07T08:53:47;20.15;;;18.00;;
66087;SDS011;52872;52.994;6.940;2023-05-07T08:56:22;23.00;;;20.20;;
66087;SDS011;52872;52.994;6.940;2023-05-07T08:58:51;21.67;;;19.52;;
66087;SDS011;52872;52.994;6.940;2023-05-07T09:01:18;21.02;;;18.83;;
66087;SDS011;52872;52.994;6.940;2023-05-07T09:03:49;19.60;;;17.52;;
66087;SDS011;52872;52.994;6.940;2023-05-07T09:06:17;20.65;;;18.45;;
66087;SDS011;52872;52.994;6.940;2023-05-07T09:08:49;19.83;;;17.70;;
66087;SDS011;52872;52.994;6.940;2023-05-07T09:11:23;21.08;;;18.92;;
66087;SDS011;52872;52.994;6.940;2023-05-07T09:13:53;21.52;;;19.33;;
66087;SDS011;52872;52.994;6.940;2023-05-07T09:16:26;19.55;;;17.25;;
66087;SDS011;52872;52.994;6.940;2023-05-07T09:18:57;21.35;;;19.08;;
66087;SDS011;52872;52.994;6.940;2023-05-07T09:21:25;20.65;;;18.45;;
66087;SDS011;52872;52.994;6.940;2023-05-07T09:23:56;20.83;;;18.73;;
66087;SDS011;52872;52.994;6.940;2023-05-07T09:26:31;20.10;;;18.00;;
66087;SDS011;52872;52.994;6.940;2023-05-07T09:28:59;19.85;;;17.83;;
66087;SDS011;52872;52.994;6.940;2023-05-07T09:31:27;19.33;;;17.42;;
66087;SDS011;52872;52.994;6.940;2023-05-07T09:33:54;20.40;;;18.30;;
66087;SDS011;52872;52.994;6.940;2023-05-07T09:36:24;16.08;;;14.23;;
66087;SDS011;52872;52.994;6.940;2023-05-07T09:38:53;18.08;;;16.27;;
66087;SDS011;52872;52.994;6.940;2023-05-07T09:41:21;18.38;;;16.63;;
66087;SDS011;52872;52.994;6.940;2023-05-07T09:44:05;19.88;;;17.77;;
66087;SDS011;52872;52.994;6.940;2023-05-07T09:46:38;19.80;;;17.73;;
66087;SDS011;52872;52.994;6.940;2023-05-07T09:49:18;16.75;;;15.18;;
66087;SDS011;52872;52.994;6.940;2023-05-07T09:51:51;18.00;;;16.30;;
66087;SDS011;52872;52.994;6.940;2023-05-07T09:54:22;17.50;;;15.80;;
66087;SDS011;52872;52.994;6.940;2023-05-07T09:56:52;19.98;;;17.98;;
66087;SDS011;52872;52.994;6.940;2023-05-07T09:59:23;17.20;;;15.50;;
66087;SDS011;52872;52.994;6.940;2023-05-07T10:01:56;18.25;;;16.45;;
66087;SDS011;52872;52.994;6.940;2023-05-07T10:04:26;18.92;;;16.90;;
66087;SDS011;52872;52.994;6.940;2023-05-07T10:06:53;18.70;;;16.88;;
66087;SDS011;52872;52.994;6.940;2023-05-07T10:09:22;18.27;;;16.48;;
66087;SDS011;52872;52.994;6.940;2023-05-07T10:11:50;17.40;;;15.60;;
66087;SDS011;52872;52.994;6.940;2023-05-07T10:14:20;18.95;;;16.92;;
66087;SDS011;52872;52.994;6.940;2023-05-07T10:16:48;17.23;;;15.55;;
66087;SDS011;52872;52.994;6.940;2023-05-07T10:19:16;19.10;;;17.35;;
66087;SDS011;52872;52.994;6.940;2023-05-07T10:22:00;18.88;;;17.08;;
66087;SDS011;52872;52.994;6.940;2023-05-07T10:24:33;16.37;;;14.73;;
66087;SDS011;52872;52.994;6.940;2023-05-07T10:27:08;18.25;;;16.45;;
66087;SDS011;52872;52.994;6.940;2023-05-07T10:29:41;18.40;;;16.60;;
66087;SDS011;52872;52.994;6.940;2023-05-07T10:35:09;18.30;;;16.58;;
66087;SDS011;52872;52.994;6.940;2023-05-07T10:37:42;18.00;;;16.33;;
66087;SDS011;52872;52.994;6.940;2023-05-07T10:40:10;21.33;;;16.30;;
66087;SDS011;52872;52.994;6.940;2023-05-07T10:42:38;18.23;;;16.52;;
66087;SDS011;52872;52.994;6.940;2023-05-07T10:45:18;18.02;;;16.23;;
66087;SDS011;52872;52.994;6.940;2023-05-07T10:48:05;20.00;;;18.13;;
66087;SDS011;52872;52.994;6.940;2023-05-07T10:53:48;17.77;;;15.98;;
66087;SDS011;52872;52.994;6.940;2023-05-07T10:58:56;18.02;;;16.35;;
66087;SDS011;52872;52.994;6.940;2023-05-07T11:02:03;17.33;;;15.73;;
66087;SDS011;52872;52.994;6.940;2023-05-07T11:04:37;18.15;;;16.45;;
66087;SDS011;52872;52.994;6.940;2023-05-07T11:07:29;18.35;;;16.65;;
66087;SDS011;52872;52.994;6.940;2023-05-07T11:10:08;18.42;;;16.73;;
66087;SDS011;52872;52.994;6.940;2023-05-07T11:12:51;18.10;;;16.40;;
66087;SDS011;52872;52.994;6.940;2023-05-07T11:15:40;18.80;;;17.10;;
66087;SDS011;52872;52.994;6.940;2023-05-07T11:18:17;18.42;;;16.65;;
66087;SDS011;52872;52.994;6.940;2023-05-07T11:20:54;19.17;;;17.15;;
66087;SDS011;52872;52.994;6.940;2023-05-07T11:23:54;17.08;;;15.48;;
66087;SDS011;52872;52.994;6.940;2023-05-07T11:26:42;18.25;;;16.45;;
66087;SDS011;52872;52.994;6.940;2023-05-07T11:29:12;16.70;;;15.18;;
66087;SDS011;52872;52.994;6.940;2023-05-07T11:31:41;16.40;;;13.73;;
66087;SDS011;52872;52.994;6.940;2023-05-07T11:34:09;16.98;;;15.27;;
66087;SDS011;52872;52.994;6.940;2023-05-07T11:36:40;15.68;;;14.27;;
66087;SDS011;52872;52.994;6.940;2023-05-07T11:39:33;17.23;;;15.63;;
66087;SDS011;52872;52.994;6.940;2023-05-07T11:42:00;17.95;;;16.35;;
66087;SDS011;52872;52.994;6.940;2023-05-07T11:44:44;18.42;;;16.80;;
66087;SDS011;52872;52.994;6.940;2023-05-07T11:47:17;17.38;;;15.82;;
66087;SDS011;52872;52.994;6.940;2023-05-07T11:49:48;16.98;;;15.38;;
66087;SDS011;52872;52.994;6.940;2023-05-07T11:52:16;17.27;;;15.77;;
66087;SDS011;52872;52.994;6.940;2023-05-07T11:54:54;16.48;;;14.98;;
66087;SDS011;52872;52.994;6.940;2023-05-07T11:57:22;15.50;;;14.10;;
66087;SDS011;52872;52.994;6.940;2023-05-07T11:59:56;16.40;;;14.90;;
66087;SDS011;52872;52.994;6.940;2023-05-07T12:02:25;17.08;;;15.50;;
66087;SDS011;52872;52.994;6.940;2023-05-07T12:04:52;14.40;;;13.02;;
66087;SDS011;52872;52.994;6.940;2023-05-07T12:07:20;17.27;;;15.75;;
66087;SDS011;52872;52.994;6.940;2023-05-07T12:09:47;17.42;;;15.82;;
66087;SDS011;52872;52.994;6.940;2023-05-07T12:12:14;16.80;;;15.30;;
66087;SDS011;52872;52.994;6.940;2023-05-07T12:14:45;17.65;;;16.05;;
66087;SDS011;52872;52.994;6.940;2023-05-07T12:17:13;16.40;;;14.85;;
66087;SDS011;52872;52.994;6.940;2023-05-07T12:19:41;17.52;;;15.77;;
66087;SDS011;52872;52.994;6.940;2023-05-07T12:22:09;16.33;;;14.95;;
66087;SDS011;52872;52.994;6.940;2023-05-07T12:27:10;16.83;;;15.25;;
66087;SDS011;52872;52.994;6.940;2023-05-07T12:29:37;15.80;;;14.30;;
66087;SDS011;52872;52.994;6.940;2023-05-07T12:32:06;15.77;;;14.38;;
66087;SDS011;52872;52.994;6.940;2023-05-07T12:34:39;17.02;;;15.50;;
66087;SDS011;52872;52.994;6.940;2023-05-07T12:37:10;16.10;;;14.60;;
66087;SDS011;52872;52.994;6.940;2023-05-07T12:39:37;14.75;;;13.52;;
66087;SDS011;52872;52.994;6.940;2023-05-07T12:42:04;13.75;;;12.57;;
66087;SDS011;52872;52.994;6.940;2023-05-07T12:44:32;16.45;;;15.05;;
66087;SDS011;52872;52.994;6.940;2023-05-07T12:47:03;15.05;;;13.75;;
66087;SDS011;52872;52.994;6.940;2023-05-07T12:49:30;15.00;;;13.80;;
66087;SDS011;52872;52.994;6.940;2023-05-07T12:51:57;15.93;;;14.55;;
66087;SDS011;52872;52.994;6.940;2023-05-07T12:54:28;15.85;;;14.55;;
66087;SDS011;52872;52.994;6.940;2023-05-07T12:57:03;15.27;;;14.00;;
66087;SDS011;52872;52.994;6.940;2023-05-07T12:59:36;16.88;;;15.18;;
66087;SDS011;52872;52.994;6.940;2023-05-07T13:02:06;16.85;;;15.40;;
66087;SDS011;52872;52.994;6.940;2023-05-07T13:04:34;16.83;;;15.43;;
66087;SDS011;52872;52.994;6.940;2023-05-07T13:07:02;15.98;;;14.32;;
66087;SDS011;52872;52.994;6.940;2023-05-07T13:09:29;14.60;;;13.30;;
66087;SDS011;52872;52.994;6.940;2023-05-07T13:11:57;12.85;;;11.68;;
66087;SDS011;52872;52.994;6.940;2023-05-07T13:14:33;12.55;;;11.55;;
66087;SDS011;52872;52.994;6.940;2023-05-07T13:17:00;14.15;;;12.95;;
66087;SDS011;52872;52.994;6.940;2023-05-07T13:19:27;14.82;;;13.63;;
66087;SDS011;52872;52.994;6.940;2023-05-07T13:21:56;15.18;;;13.77;;
66087;SDS011;52872;52.994;6.940;2023-05-07T13:24:23;14.05;;;12.95;;
66087;SDS011;52872;52.994;6.940;2023-05-07T13:26:50;14.73;;;13.38;;
66087;SDS011;52872;52.994;6.940;2023-05-07T13:29:17;14.63;;;13.35;;
66087;SDS011;52872;52.994;6.940;2023-05-07T13:31:44;15.00;;;13.60;;
66087;SDS011;52872;52.994;6.940;2023-05-07T13:34:13;14.07;;;12.98;;
66087;SDS011;52872;52.994;6.940;2023-05-07T13:36:39;14.65;;;13.52;;
66087;SDS011;52872;52.994;6.940;2023-05-07T13:39:09;15.15;;;13.95;;
66087;SDS011;52872;52.994;6.940;2023-05-07T13:41:36;14.35;;;13.05;;
66087;SDS011;52872;52.994;6.940;2023-05-07T13:44:03;14.40;;;13.23;;
66087;SDS011;52872;52.994;6.940;2023-05-07T13:46:30;14.57;;;13.30;;
66087;SDS011;52872;52.994;6.940;2023-05-07T13:48:57;15.18;;;13.88;;
66087;SDS011;52872;52.994;6.940;2023-05-07T13:51:24;14.25;;;13.15;;
66087;SDS011;52872;52.994;6.940;2023-05-07T13:53:52;14.88;;;13.57;;
66087;SDS011;52872;52.994;6.940;2023-05-07T13:56:18;14.50;;;13.43;;
66087;SDS011;52872;52.994;6.940;2023-05-07T13:58:46;15.43;;;14.15;;
66087;SDS011;52872;52.994;6.940;2023-05-07T14:01:24;14.70;;;13.50;;
66087;SDS011;52872;52.994;6.940;2023-05-07T14:03:51;15.63;;;14.38;;
66087;SDS011;52872;52.994;6.940;2023-05-07T14:06:18;15.43;;;14.13;;
66087;SDS011;52872;52.994;6.940;2023-05-07T14:08:46;16.00;;;14.75;;
66087;SDS011;52872;52.994;6.940;2023-05-07T14:11:12;17.25;;;15.95;;
66087;SDS011;52872;52.994;6.940;2023-05-07T14:13:39;15.65;;;14.38;;
66087;SDS011;52872;52.994;6.940;2023-05-07T14:16:06;15.73;;;14.43;;
66087;SDS011;52872;52.994;6.940;2023-05-07T14:18:34;13.73;;;12.70;;
66087;SDS011;52872;52.994;6.940;2023-05-07T14:21:04;14.95;;;13.63;;
66087;SDS011;52872;52.994;6.940;2023-05-07T14:23:32;16.45;;;15.05;;
66087;SDS011;52872;52.994;6.940;2023-05-07T14:25:59;16.05;;;14.75;;
66087;SDS011;52872;52.994;6.940;2023-05-07T14:28:26;15.30;;;14.10;;
66087;SDS011;52872;52.994;6.940;2023-05-07T14:30:53;15.25;;;14.05;;
66087;SDS011;52872;52.994;6.940;2023-05-07T14:33:20;17.55;;;15.95;;
66087;SDS011;52872;52.994;6.940;2023-05-07T14:35:47;15.02;;;13.82;;
66087;SDS011;52872;52.994;6.940;2023-05-07T14:38:16;17.13;;;15.82;;
66087;SDS011;52872;52.994;6.940;2023-05-07T14:40:44;17.15;;;15.63;;
66087;SDS011;52872;52.994;6.940;2023-05-07T14:43:11;17.20;;;15.75;;
66087;SDS011;52872;52.994;6.940;2023-05-07T14:45:38;17.77;;;16.27;;
66087;SDS011;52872;52.994;6.940;2023-05-07T14:48:05;17.40;;;15.90;;